Terminal Aerodrome Forecast
Issued by NWS Buffalo, NY

Home | Current Version | Previous Version | Text Only | Print | Product List | Glossary On
Versions: 1 2 3 4 5 6 7 8 9 10 11 12 13 14 15 16 17 18 19 20 21 22 23 24 25 26 27
000
FTUS41 KBUF 211738
TAFROC
TAF
KROC 211738Z 2118/2218 22017G25KT P6SM SCT250
     FM220300 24008KT 6SM -SHRA OVC040
     FM220600 27008KT 6SM -SHRASN OVC025
     FM220800 28009KT P6SM BKN025
     FM221100 28011KT P6SM BKN035
     FM221200 27012G18KT P6SM SCT035=

USA.gov is the U.S. government's official web portal to all federal, state and local government web resources and services.